sensor_id;sensor_type;location;lat;lon;timestamp;temperature;humidity
13970;DHT22;7057;49.984;8.404;2023-02-15T00:00:19;2.40;99.90
13970;DHT22;7057;49.984;8.404;2023-02-15T00:02:46;2.40;99.90
13970;DHT22;7057;49.984;8.404;2023-02-15T00:05:15;2.40;99.90
13970;DHT22;7057;49.984;8.404;2023-02-15T00:07:42;2.30;99.90
13970;DHT22;7057;49.984;8.404;2023-02-15T00:10:10;2.30;99.90
13970;DHT22;7057;49.984;8.404;2023-02-15T00:12:37;2.30;99.90
13970;DHT22;7057;49.984;8.404;2023-02-15T00:15:05;2.30;99.90
13970;DHT22;7057;49.984;8.404;2023-02-15T00:17:32;2.30;99.90
13970;DHT22;7057;49.984;8.404;2023-02-15T00:19:59;2.30;99.90
13970;DHT22;7057;49.984;8.404;2023-02-15T00:22:28;2.30;99.90
13970;DHT22;7057;49.984;8.404;2023-02-15T00:24:55;2.30;99.90
13970;DHT22;7057;49.984;8.404;2023-02-15T00:27:22;2.30;99.90
13970;DHT22;7057;49.984;8.404;2023-02-15T00:29:50;2.30;99.90
13970;DHT22;7057;49.984;8.404;2023-02-15T00:32:17;2.30;99.90
13970;DHT22;7057;49.984;8.404;2023-02-15T00:34:44;2.30;99.90
13970;DHT22;7057;49.984;8.404;2023-02-15T00:37:11;2.20;99.90
13970;DHT22;7057;49.984;8.404;2023-02-15T00:39:40;2.20;99.90
13970;DHT22;7057;49.984;8.404;2023-02-15T00:42:07;2.20;99.90
13970;DHT22;7057;49.984;8.404;2023-02-15T00:44:34;2.20;99.90
13970;DHT22;7057;49.984;8.404;2023-02-15T00:47:01;2.20;99.90
13970;DHT22;7057;49.984;8.404;2023-02-15T00:49:28;2.10;99.90
13970;DHT22;7057;49.984;8.404;2023-02-15T00:51:55;2.20;99.90
13970;DHT22;7057;49.984;8.404;2023-02-15T00:54:22;1.90;99.90
13970;DHT22;7057;49.984;8.404;2023-02-15T00:56:51;1.90;99.90
13970;DHT22;7057;49.984;8.404;2023-02-15T00:59:18;2.00;99.90
13970;DHT22;7057;49.984;8.404;2023-02-15T01:01:45;2.00;99.90
13970;DHT22;7057;49.984;8.404;2023-02-15T01:04:12;2.00;99.90
13970;DHT22;7057;49.984;8.404;2023-02-15T01:06:40;2.00;99.90
13970;DHT22;7057;49.984;8.404;2023-02-15T01:09:07;2.00;99.90
13970;DHT22;7057;49.984;8.404;2023-02-15T01:11:34;2.00;99.90
13970;DHT22;7057;49.984;8.404;2023-02-15T01:14:02;2.00;99.90
13970;DHT22;7057;49.984;8.404;2023-02-15T01:16:31;2.20;99.90
13970;DHT22;7057;49.984;8.404;2023-02-15T01:18:58;2.20;99.90
13970;DHT22;7057;49.984;8.404;2023-02-15T01:21:26;2.10;99.90
13970;DHT22;7057;49.984;8.404;2023-02-15T01:23:53;2.10;99.90
13970;DHT22;7057;49.984;8.404;2023-02-15T01:26:21;2.10;99.90
13970;DHT22;7057;49.984;8.404;2023-02-15T01:28:48;2.10;99.90
13970;DHT22;7057;49.984;8.404;2023-02-15T01:31:19;2.10;99.90
13970;DHT22;7057;49.984;8.404;2023-02-15T01:33:47;2.10;99.90
13970;DHT22;7057;49.984;8.404;2023-02-15T01:36:14;2.10;99.90
13970;DHT22;7057;49.984;8.404;2023-02-15T01:38:43;2.10;99.90
13970;DHT22;7057;49.984;8.404;2023-02-15T01:41:10;2.10;99.90
13970;DHT22;7057;49.984;8.404;2023-02-15T01:43:55;2.10;99.90
13970;DHT22;7057;49.984;8.404;2023-02-15T01:46:27;2.10;99.90
13970;DHT22;7057;49.984;8.404;2023-02-15T01:49:03;2.10;99.90
13970;DHT22;7057;49.984;8.404;2023-02-15T01:51:34;2.20;99.90
13970;DHT22;7057;49.984;8.404;2023-02-15T01:54:07;2.10;99.90
13970;DHT22;7057;49.984;8.404;2023-02-15T01:56:37;2.10;99.90
13970;DHT22;7057;49.984;8.404;2023-02-15T01:59:07;2.20;99.90
13970;DHT22;7057;49.984;8.404;2023-02-15T02:01:37;2.10;99.90
13970;DHT22;7057;49.984;8.404;2023-02-15T02:04:09;2.10;99.90
13970;DHT22;7057;49.984;8.404;2023-02-15T02:06:39;2.10;99.90
13970;DHT22;7057;49.984;8.404;2023-02-15T02:09:07;2.00;99.90
13970;DHT22;7057;49.984;8.404;2023-02-15T02:11:36;2.00;99.90
13970;DHT22;7057;49.984;8.404;2023-02-15T02:14:03;2.00;99.90
13970;DHT22;7057;49.984;8.404;2023-02-15T02:16:40;2.00;99.90
13970;DHT22;7057;49.984;8.404;2023-02-15T02:19:46;2.00;99.90
13970;DHT22;7057;49.984;8.404;2023-02-15T02:22:49;1.90;99.90
13970;DHT22;7057;49.984;8.404;2023-02-15T02:25:43;1.90;99.90
13970;DHT22;7057;49.984;8.404;2023-02-15T02:28:35;1.90;99.90
13970;DHT22;7057;49.984;8.404;2023-02-15T02:31:36;2.00;99.90
13970;DHT22;7057;49.984;8.404;2023-02-15T02:34:11;1.90;99.90
13970;DHT22;7057;49.984;8.404;2023-02-15T02:36:44;2.00;99.90
13970;DHT22;7057;49.984;8.404;2023-02-15T02:39:23;2.10;99.90
13970;DHT22;7057;49.984;8.404;2023-02-15T02:42:00;2.00;99.90
13970;DHT22;7057;49.984;8.404;2023-02-15T02:44:33;2.10;99.90
13970;DHT22;7057;49.984;8.404;2023-02-15T02:47:07;2.10;99.90
13970;DHT22;7057;49.984;8.404;2023-02-15T02:49:39;2.10;99.90
13970;DHT22;7057;49.984;8.404;2023-02-15T02:52:33;2.20;99.90
13970;DHT22;7057;49.984;8.404;2023-02-15T02:54:56;2.10;99.90
13970;DHT22;7057;49.984;8.404;2023-02-15T02:57:24;2.00;99.90
13970;DHT22;7057;49.984;8.404;2023-02-15T02:59:54;1.90;99.90
13970;DHT22;7057;49.984;8.404;2023-02-15T03:02:25;1.90;99.90
13970;DHT22;7057;49.984;8.404;2023-02-15T03:04:58;1.90;99.90
13970;DHT22;7057;49.984;8.404;2023-02-15T03:07:30;2.00;99.90
13970;DHT22;7057;49.984;8.404;2023-02-15T03:10:00;2.00;99.90
13970;DHT22;7057;49.984;8.404;2023-02-15T03:12:32;2.10;99.90
13970;DHT22;7057;49.984;8.404;2023-02-15T03:15:02;2.10;99.90
13970;DHT22;7057;49.984;8.404;2023-02-15T03:17:31;2.20;99.90
13970;DHT22;7057;49.984;8.404;2023-02-15T03:20:02;2.20;99.90
13970;DHT22;7057;49.984;8.404;2023-02-15T03:22:33;2.20;99.90
13970;DHT22;7057;49.984;8.404;2023-02-15T03:25:06;2.20;99.90
13970;DHT22;7057;49.984;8.404;2023-02-15T03:27:38;2.20;99.90
13970;DHT22;7057;49.984;8.404;2023-02-15T03:30:08;2.20;99.90
13970;DHT22;7057;49.984;8.404;2023-02-15T03:32:37;2.30;99.90
13970;DHT22;7057;49.984;8.404;2023-02-15T03:35:06;2.30;99.90
13970;DHT22;7057;49.984;8.404;2023-02-15T03:37:36;2.30;99.90
13970;DHT22;7057;49.984;8.404;2023-02-15T03:40:10;2.40;99.90
13970;DHT22;7057;49.984;8.404;2023-02-15T03:42:58;2.40;99.90
13970;DHT22;7057;49.984;8.404;2023-02-15T03:45:29;2.30;99.90
13970;DHT22;7057;49.984;8.404;2023-02-15T03:47:59;2.30;99.90
13970;DHT22;7057;49.984;8.404;2023-02-15T03:50:30;2.30;99.90
13970;DHT22;7057;49.984;8.404;2023-02-15T03:53:19;2.20;99.90
13970;DHT22;7057;49.984;8.404;2023-02-15T03:55:49;2.10;99.90
13970;DHT22;7057;49.984;8.404;2023-02-15T03:58:20;2.00;99.90
13970;DHT22;7057;49.984;8.404;2023-02-15T04:01:11;2.00;99.90
13970;DHT22;7057;49.984;8.404;2023-02-15T04:04:02;2.00;99.90
13970;DHT22;7057;49.984;8.404;2023-02-15T04:06:32;2.10;99.90
13970;DHT22;7057;49.984;8.404;2023-02-15T04:08:59;2.20;99.90
13970;DHT22;7057;49.984;8.404;2023-02-15T04:11:45;2.20;99.90
13970;DHT22;7057;49.984;8.404;2023-02-15T04:14:12;2.30;99.90
13970;DHT22;7057;49.984;8.404;2023-02-15T04:16:53;2.30;99.90
13970;DHT22;7057;49.984;8.404;2023-02-15T04:19:20;2.40;99.90
13970;DHT22;7057;49.984;8.404;2023-02-15T04:22:05;2.40;99.90
13970;DHT22;7057;49.984;8.404;2023-02-15T04:24:49;2.40;99.90
13970;DHT22;7057;49.984;8.404;2023-02-15T04:27:35;2.40;99.90
13970;DHT22;7057;49.984;8.404;2023-02-15T04:30:03;2.40;99.90
13970;DHT22;7057;49.984;8.404;2023-02-15T04:32:30;2.40;99.90
13970;DHT22;7057;49.984;8.404;2023-02-15T04:34:57;2.50;99.90
13970;DHT22;7057;49.984;8.404;2023-02-15T04:37:24;2.50;99.90
13970;DHT22;7057;49.984;8.404;2023-02-15T04:39:52;2.50;99.90
13970;DHT22;7057;49.984;8.404;2023-02-15T04:42:19;2.40;99.90
13970;DHT22;7057;49.984;8.404;2023-02-15T04:44:47;2.50;99.90
13970;DHT22;7057;49.984;8.404;2023-02-15T04:47:14;2.50;99.90
13970;DHT22;7057;49.984;8.404;2023-02-15T04:49:42;2.50;99.90
13970;DHT22;7057;49.984;8.404;2023-02-15T04:52:09;2.40;99.90
13970;DHT22;7057;49.984;8.404;2023-02-15T04:54:36;2.50;99.90
13970;DHT22;7057;49.984;8.404;2023-02-15T04:57:03;2.40;99.90
13970;DHT22;7057;49.984;8.404;2023-02-15T04:59:31;2.40;99.90
13970;DHT22;7057;49.984;8.404;2023-02-15T05:01:59;2.40;99.90
13970;DHT22;7057;49.984;8.404;2023-02-15T05:04:27;2.40;99.90
13970;DHT22;7057;49.984;8.404;2023-02-15T05:06:54;2.40;99.90
13970;DHT22;7057;49.984;8.404;2023-02-15T05:09:21;2.30;99.90
13970;DHT22;7057;49.984;8.404;2023-02-15T05:11:48;2.30;99.90
13970;DHT22;7057;49.984;8.404;2023-02-15T05:14:15;2.30;99.90
13970;DHT22;7057;49.984;8.404;2023-02-15T05:16:43;2.30;99.90
13970;DHT22;7057;49.984;8.404;2023-02-15T05:19:11;2.30;99.90
13970;DHT22;7057;49.984;8.404;2023-02-15T05:21:38;2.20;99.90
13970;DHT22;7057;49.984;8.404;2023-02-15T05:24:05;2.20;99.90
13970;DHT22;7057;49.984;8.404;2023-02-15T05:26:54;2.20;99.90
13970;DHT22;7057;49.984;8.404;2023-02-15T05:29:38;2.20;99.90
13970;DHT22;7057;49.984;8.404;2023-02-15T05:32:05;2.20;99.90
13970;DHT22;7057;49.984;8.404;2023-02-15T05:34:34;2.20;99.90
13970;DHT22;7057;49.984;8.404;2023-02-15T05:37:01;2.20;99.90
13970;DHT22;7057;49.984;8.404;2023-02-15T05:39:28;2.20;99.90
13970;DHT22;7057;49.984;8.404;2023-02-15T05:41:58;2.20;99.90
13970;DHT22;7057;49.984;8.404;2023-02-15T05:44:25;2.30;99.90
13970;DHT22;7057;49.984;8.404;2023-02-15T05:46:52;2.20;99.90
13970;DHT22;7057;49.984;8.404;2023-02-15T05:49:20;2.20;99.90
13970;DHT22;7057;49.984;8.404;2023-02-15T05:51:48;2.20;99.90
13970;DHT22;7057;49.984;8.404;2023-02-15T05:54:16;2.20;99.90
13970;DHT22;7057;49.984;8.404;2023-02-15T05:56:43;2.20;99.90
13970;DHT22;7057;49.984;8.404;2023-02-15T05:59:10;2.10;99.90
13970;DHT22;7057;49.984;8.404;2023-02-15T06:01:38;2.10;99.90
13970;DHT22;7057;49.984;8.404;2023-02-15T06:04:05;2.10;99.90
13970;DHT22;7057;49.984;8.404;2023-02-15T06:06:32;2.20;99.90
13970;DHT22;7057;49.984;8.404;2023-02-15T06:09:01;2.20;99.90
13970;DHT22;7057;49.984;8.404;2023-02-15T06:11:28;2.20;99.90
13970;DHT22;7057;49.984;8.404;2023-02-15T06:13:56;2.10;99.90
13970;DHT22;7057;49.984;8.404;2023-02-15T06:16:23;2.10;99.90
13970;DHT22;7057;49.984;8.404;2023-02-15T06:18:50;2.10;99.90
13970;DHT22;7057;49.984;8.404;2023-02-15T06:21:17;2.00;99.90
13970;DHT22;7057;49.984;8.404;2023-02-15T06:23:44;2.00;99.90
13970;DHT22;7057;49.984;8.404;2023-02-15T06:26:13;2.10;99.90
13970;DHT22;7057;49.984;8.404;2023-02-15T06:28:40;2.00;99.90
13970;DHT22;7057;49.984;8.404;2023-02-15T06:31:07;2.00;99.90
13970;DHT22;7057;49.984;8.404;2023-02-15T06:33:35;2.10;99.90
13970;DHT22;7057;49.984;8.404;2023-02-15T06:36:02;2.10;99.90
13970;DHT22;7057;49.984;8.404;2023-02-15T06:38:30;2.10;99.90
13970;DHT22;7057;49.984;8.404;2023-02-15T06:40:57;2.20;99.90
13970;DHT22;7057;49.984;8.404;2023-02-15T06:43:26;2.20;99.90
13970;DHT22;7057;49.984;8.404;2023-02-15T06:45:53;2.20;99.90
13970;DHT22;7057;49.984;8.404;2023-02-15T06:48:20;2.20;99.90
13970;DHT22;7057;49.984;8.404;2023-02-15T06:50:47;2.20;99.90
13970;DHT22;7057;49.984;8.404;2023-02-15T06:53:15;2.20;99.90
13970;DHT22;7057;49.984;8.404;2023-02-15T06:55:42;2.20;99.90
13970;DHT22;7057;49.984;8.404;2023-02-15T06:58:09;2.10;99.90
13970;DHT22;7057;49.984;8.404;2023-02-15T07:00:37;2.20;99.90
13970;DHT22;7057;49.984;8.404;2023-02-15T07:03:04;2.20;99.90
13970;DHT22;7057;49.984;8.404;2023-02-15T07:05:33;2.10;99.90
13970;DHT22;7057;49.984;8.404;2023-02-15T07:08:01;2.00;99.90
13970;DHT22;7057;49.984;8.404;2023-02-15T07:10:28;2.00;99.90
13970;DHT22;7057;49.984;8.404;2023-02-15T07:12:56;2.00;99.90
13970;DHT22;7057;49.984;8.404;2023-02-15T07:15:22;2.00;99.90
13970;DHT22;7057;49.984;8.404;2023-02-15T07:17:50;2.00;99.90
13970;DHT22;7057;49.984;8.404;2023-02-15T07:20:20;2.00;99.90
13970;DHT22;7057;49.984;8.404;2023-02-15T07:22:48;2.10;99.90
13970;DHT22;7057;49.984;8.404;2023-02-15T07:25:16;2.00;99.90
13970;DHT22;7057;49.984;8.404;2023-02-15T07:27:44;2.00;99.90
13970;DHT22;7057;49.984;8.404;2023-02-15T07:30:13;2.00;99.90
13970;DHT22;7057;49.984;8.404;2023-02-15T07:32:41;2.00;99.90
13970;DHT22;7057;49.984;8.404;2023-02-15T07:35:23;2.10;99.90
13970;DHT22;7057;49.984;8.404;2023-02-15T07:37:51;2.10;99.90
13970;DHT22;7057;49.984;8.404;2023-02-15T07:40:19;2.10;99.90
13970;DHT22;7057;49.984;8.404;2023-02-15T07:42:48;2.10;99.90
13970;DHT22;7057;49.984;8.404;2023-02-15T07:45:15;2.20;99.90
13970;DHT22;7057;49.984;8.404;2023-02-15T07:47:42;2.20;99.90
13970;DHT22;7057;49.984;8.404;2023-02-15T07:50:09;2.20;99.90
13970;DHT22;7057;49.984;8.404;2023-02-15T07:52:38;2.20;99.90
13970;DHT22;7057;49.984;8.404;2023-02-15T07:55:06;2.30;99.90
13970;DHT22;7057;49.984;8.404;2023-02-15T07:57:34;2.30;99.90
13970;DHT22;7057;49.984;8.404;2023-02-15T08:00:02;2.30;99.90
13970;DHT22;7057;49.984;8.404;2023-02-15T08:02:29;2.30;99.90
13970;DHT22;7057;49.984;8.404;2023-02-15T08:04:56;2.30;99.90
13970;DHT22;7057;49.984;8.404;2023-02-15T08:07:23;2.30;99.90
13970;DHT22;7057;49.984;8.404;2023-02-15T08:09:52;2.30;99.90
13970;DHT22;7057;49.984;8.404;2023-02-15T08:12:19;2.40;99.90
13970;DHT22;7057;49.984;8.404;2023-02-15T08:14:46;2.40;99.90
13970;DHT22;7057;49.984;8.404;2023-02-15T08:17:13;2.40;99.90
13970;DHT22;7057;49.984;8.404;2023-02-15T08:19:41;2.40;99.90
13970;DHT22;7057;49.984;8.404;2023-02-15T08:22:12;2.40;99.90
13970;DHT22;7057;49.984;8.404;2023-02-15T08:24:40;2.40;99.90
13970;DHT22;7057;49.984;8.404;2023-02-15T08:27:10;2.40;99.90
13970;DHT22;7057;49.984;8.404;2023-02-15T08:29:38;2.40;99.90
13970;DHT22;7057;49.984;8.404;2023-02-15T08:32:09;2.40;99.90
13970;DHT22;7057;49.984;8.404;2023-02-15T08:34:39;2.50;99.90
13970;DHT22;7057;49.984;8.404;2023-02-15T08:37:06;2.60;99.90
13970;DHT22;7057;49.984;8.404;2023-02-15T08:39:34;2.60;99.90
13970;DHT22;7057;49.984;8.404;2023-02-15T08:42:01;2.70;99.90
13970;DHT22;7057;49.984;8.404;2023-02-15T08:44:30;2.40;99.90
13970;DHT22;7057;49.984;8.404;2023-02-15T08:46:57;2.50;99.90
13970;DHT22;7057;49.984;8.404;2023-02-15T08:49:28;2.50;99.90
13970;DHT22;7057;49.984;8.404;2023-02-15T08:51:55;2.50;99.90
13970;DHT22;7057;49.984;8.404;2023-02-15T08:54:22;2.50;99.90
13970;DHT22;7057;49.984;8.404;2023-02-15T08:56:50;2.60;99.90
13970;DHT22;7057;49.984;8.404;2023-02-15T08:59:19;2.60;99.90
13970;DHT22;7057;49.984;8.404;2023-02-15T09:01:50;2.70;99.90
13970;DHT22;7057;49.984;8.404;2023-02-15T09:04:18;2.70;99.90
13970;DHT22;7057;49.984;8.404;2023-02-15T09:06:47;2.80;99.90
13970;DHT22;7057;49.984;8.404;2023-02-15T09:09:15;2.70;99.90
13970;DHT22;7057;49.984;8.404;2023-02-15T09:11:46;2.70;99.90
13970;DHT22;7057;49.984;8.404;2023-02-15T09:14:15;2.70;99.90
13970;DHT22;7057;49.984;8.404;2023-02-15T09:16:44;2.70;99.90
13970;DHT22;7057;49.984;8.404;2023-02-15T09:19:15;2.70;99.90
13970;DHT22;7057;49.984;8.404;2023-02-15T09:21:43;2.70;99.90
13970;DHT22;7057;49.984;8.404;2023-02-15T09:24:11;2.80;99.90
13970;DHT22;7057;49.984;8.404;2023-02-15T09:26:41;2.80;99.90
13970;DHT22;7057;49.984;8.404;2023-02-15T09:29:10;2.90;99.90
13970;DHT22;7057;49.984;8.404;2023-02-15T09:31:39;2.80;99.90
13970;DHT22;7057;49.984;8.404;2023-02-15T09:34:07;2.90;99.90
13970;DHT22;7057;49.984;8.404;2023-02-15T09:36:37;2.90;99.90
13970;DHT22;7057;49.984;8.404;2023-02-15T09:39:08;3.00;99.90
13970;DHT22;7057;49.984;8.404;2023-02-15T09:44:43;3.10;99.90
13970;DHT22;7057;49.984;8.404;2023-02-15T09:47:36;3.20;99.90
13970;DHT22;7057;49.984;8.404;2023-02-15T09:50:15;3.20;99.90
13970;DHT22;7057;49.984;8.404;2023-02-15T09:52:58;3.20;99.90
13970;DHT22;7057;49.984;8.404;2023-02-15T09:55:42;3.30;99.90
13970;DHT22;7057;49.984;8.404;2023-02-15T09:58:15;3.20;99.90
13970;DHT22;7057;49.984;8.404;2023-02-15T10:00:50;3.20;99.90
13970;DHT22;7057;49.984;8.404;2023-02-15T10:03:41;3.30;99.90
13970;DHT22;7057;49.984;8.404;2023-02-15T10:06:32;3.30;99.90
13970;DHT22;7057;49.984;8.404;2023-02-15T10:09:17;3.30;99.90
13970;DHT22;7057;49.984;8.404;2023-02-15T10:12:06;3.40;99.90
13970;DHT22;7057;49.984;8.404;2023-02-15T10:14:47;3.40;99.90
13970;DHT22;7057;49.984;8.404;2023-02-15T10:17:29;3.40;99.90
13970;DHT22;7057;49.984;8.404;2023-02-15T10:20:09;3.50;99.90
13970;DHT22;7057;49.984;8.404;2023-02-15T10:22:50;3.50;99.90
13970;DHT22;7057;49.984;8.404;2023-02-15T10:25:35;3.60;99.90
13970;DHT22;7057;49.984;8.404;2023-02-15T10:28:16;3.60;99.90
13970;DHT22;7057;49.984;8.404;2023-02-15T10:30:47;3.70;99.90
13970;DHT22;7057;49.984;8.404;2023-02-15T10:33:30;3.70;99.90
13970;DHT22;7057;49.984;8.404;2023-02-15T10:36:05;3.70;99.90
13970;DHT22;7057;49.984;8.404;2023-02-15T10:38:41;3.70;99.90
13970;DHT22;7057;49.984;8.404;2023-02-15T10:41:21;3.80;99.90
13970;DHT22;7057;49.984;8.404;2023-02-15T10:44:11;3.80;99.90
13970;DHT22;7057;49.984;8.404;2023-02-15T10:46:55;3.60;99.90
13970;DHT22;7057;49.984;8.404;2023-02-15T10:49:40;3.70;99.90
13970;DHT22;7057;49.984;8.404;2023-02-15T10:52:25;3.60;99.90
13970;DHT22;7057;49.984;8.404;2023-02-15T10:55:02;3.70;99.90
13970;DHT22;7057;49.984;8.404;2023-02-15T10:57:41;3.60;99.90
13970;DHT22;7057;49.984;8.404;2023-02-15T11:00:17;3.50;99.90
13970;DHT22;7057;49.984;8.404;2023-02-15T11:03:02;3.50;99.90
13970;DHT22;7057;49.984;8.404;2023-02-15T11:05:43;3.50;99.90
13970;DHT22;7057;49.984;8.404;2023-02-15T11:08:15;3.60;99.90
13970;DHT22;7057;49.984;8.404;2023-02-15T11:10:46;3.70;99.90
13970;DHT22;7057;49.984;8.404;2023-02-15T11:13:17;3.70;99.90
13970;DHT22;7057;49.984;8.404;2023-02-15T11:15:49;3.70;99.90
13970;DHT22;7057;49.984;8.404;2023-02-15T11:18:23;3.70;99.90
13970;DHT22;7057;49.984;8.404;2023-02-15T11:20:54;3.80;99.90
13970;DHT22;7057;49.984;8.404;2023-02-15T11:23:24;3.80;99.90
13970;DHT22;7057;49.984;8.404;2023-02-15T11:25:56;3.90;99.90
13970;DHT22;7057;49.984;8.404;2023-02-15T11:28:31;3.90;99.90
13970;DHT22;7057;49.984;8.404;2023-02-15T11:31:02;3.90;99.90
13970;DHT22;7057;49.984;8.404;2023-02-15T11:33:42;4.00;99.90
13970;DHT22;7057;49.984;8.404;2023-02-15T11:36:13;4.00;99.90
13970;DHT22;7057;49.984;8.404;2023-02-15T11:38:43;3.90;99.90
13970;DHT22;7057;49.984;8.404;2023-02-15T11:41:14;3.80;99.90
13970;DHT22;7057;49.984;8.404;2023-02-15T11:43:49;3.90;99.90
13970;DHT22;7057;49.984;8.404;2023-02-15T11:46:18;4.00;99.90
13970;DHT22;7057;49.984;8.404;2023-02-15T11:48:47;4.00;99.90
13970;DHT22;7057;49.984;8.404;2023-02-15T11:51:17;4.10;99.90
13970;DHT22;7057;49.984;8.404;2023-02-15T11:53:46;4.10;99.90
13970;DHT22;7057;49.984;8.404;2023-02-15T11:56:15;4.10;99.90
13970;DHT22;7057;49.984;8.404;2023-02-15T11:58:47;4.20;99.90
13970;DHT22;7057;49.984;8.404;2023-02-15T12:01:18;4.20;99.90
13970;DHT22;7057;49.984;8.404;2023-02-15T12:03:49;4.30;99.90
13970;DHT22;7057;49.984;8.404;2023-02-15T12:06:22;4.30;99.90
13970;DHT22;7057;49.984;8.404;2023-02-15T12:08:55;4.40;99.90
13970;DHT22;7057;49.984;8.404;2023-02-15T12:11:31;4.50;99.90
13970;DHT22;7057;49.984;8.404;2023-02-15T12:14:03;4.50;99.90
13970;DHT22;7057;49.984;8.404;2023-02-15T12:16:40;4.50;99.90
13970;DHT22;7057;49.984;8.404;2023-02-15T12:19:19;4.60;99.90
13970;DHT22;7057;49.984;8.404;2023-02-15T12:21:50;4.60;99.90
13970;DHT22;7057;49.984;8.404;2023-02-15T12:24:21;4.60;99.90
13970;DHT22;7057;49.984;8.404;2023-02-15T12:26:58;4.60;99.90
13970;DHT22;7057;49.984;8.404;2023-02-15T12:29:30;4.60;99.90
13970;DHT22;7057;49.984;8.404;2023-02-15T12:31:57;4.50;99.90
13970;DHT22;7057;49.984;8.404;2023-02-15T12:34:27;4.50;99.90
13970;DHT22;7057;49.984;8.404;2023-02-15T12:37:00;4.50;99.90
13970;DHT22;7057;49.984;8.404;2023-02-15T12:39:30;4.40;99.90
13970;DHT22;7057;49.984;8.404;2023-02-15T12:42:00;4.50;99.90
13970;DHT22;7057;49.984;8.404;2023-02-15T12:44:31;4.50;99.90
13970;DHT22;7057;49.984;8.404;2023-02-15T12:47:01;4.50;99.90
13970;DHT22;7057;49.984;8.404;2023-02-15T12:49:30;4.60;99.90
13970;DHT22;7057;49.984;8.404;2023-02-15T12:51:59;4.60;99.90
13970;DHT22;7057;49.984;8.404;2023-02-15T12:54:35;4.60;99.90
13970;DHT22;7057;49.984;8.404;2023-02-15T12:57:21;4.60;99.90
13970;DHT22;7057;49.984;8.404;2023-02-15T12:59:51;4.60;99.90
13970;DHT22;7057;49.984;8.404;2023-02-15T13:02:30;4.60;99.90
13970;DHT22;7057;49.984;8.404;2023-02-15T13:05:16;4.60;99.90
13970;DHT22;7057;49.984;8.404;2023-02-15T13:07:47;4.60;99.90
13970;DHT22;7057;49.984;8.404;2023-02-15T13:10:22;4.60;99.90
13970;DHT22;7057;49.984;8.404;2023-02-15T13:12:52;4.60;99.90
13970;DHT22;7057;49.984;8.404;2023-02-15T13:15:32;4.60;99.90
13970;DHT22;7057;49.984;8.404;2023-02-15T13:18:02;4.60;99.90
13970;DHT22;7057;49.984;8.404;2023-02-15T13:20:31;4.70;99.90
13970;DHT22;7057;49.984;8.404;2023-02-15T13:23:02;4.60;99.90
13970;DHT22;7057;49.984;8.404;2023-02-15T13:25:35;4.60;99.90
13970;DHT22;7057;49.984;8.404;2023-02-15T13:28:10;4.70;99.90
13970;DHT22;7057;49.984;8.404;2023-02-15T13:30:44;4.80;99.90
13970;DHT22;7057;49.984;8.404;2023-02-15T13:33:16;4.90;99.90
13970;DHT22;7057;49.984;8.404;2023-02-15T13:35:46;4.90;99.90
13970;DHT22;7057;49.984;8.404;2023-02-15T13:38:25;4.90;99.90
13970;DHT22;7057;49.984;8.404;2023-02-15T13:41:03;4.90;99.90
13970;DHT22;7057;49.984;8.404;2023-02-15T13:43:39;4.90;99.90
13970;DHT22;7057;49.984;8.404;2023-02-15T13:46:18;5.00;99.90
13970;DHT22;7057;49.984;8.404;2023-02-15T13:48:56;5.00;99.90
13970;DHT22;7057;49.984;8.404;2023-02-15T13:51:32;5.00;99.90
13970;DHT22;7057;49.984;8.404;2023-02-15T13:54:17;4.90;99.90
13970;DHT22;7057;49.984;8.404;2023-02-15T13:57:00;4.70;99.90
13970;DHT22;7057;49.984;8.404;2023-02-15T13:59:40;4.70;99.90
13970;DHT22;7057;49.984;8.404;2023-02-15T14:02:38;4.50;99.90
13970;DHT22;7057;49.984;8.404;2023-02-15T14:05:21;4.50;99.90
13970;DHT22;7057;49.984;8.404;2023-02-15T14:07:58;4.50;99.90
13970;DHT22;7057;49.984;8.404;2023-02-15T14:10:41;4.60;99.90
13970;DHT22;7057;49.984;8.404;2023-02-15T14:13:44;4.60;99.90
13970;DHT22;7057;49.984;8.404;2023-02-15T14:16:22;4.70;99.90
13970;DHT22;7057;49.984;8.404;2023-02-15T14:19:02;4.70;99.90
13970;DHT22;7057;49.984;8.404;2023-02-15T14:21:32;4.80;99.90
13970;DHT22;7057;49.984;8.404;2023-02-15T14:24:17;4.80;99.90
13970;DHT22;7057;49.984;8.404;2023-02-15T14:26:49;4.80;99.90
13970;DHT22;7057;49.984;8.404;2023-02-15T14:29:26;4.80;99.90
13970;DHT22;7057;49.984;8.404;2023-02-15T14:31:57;4.80;99.90
13970;DHT22;7057;49.984;8.404;2023-02-15T14:34:30;4.80;99.90
13970;DHT22;7057;49.984;8.404;2023-02-15T14:37:01;4.80;99.90
13970;DHT22;7057;49.984;8.404;2023-02-15T14:39:36;4.80;99.90
13970;DHT22;7057;49.984;8.404;2023-02-15T14:42:28;4.80;99.90
13970;DHT22;7057;49.984;8.404;2023-02-15T14:45:02;4.70;99.90
13970;DHT22;7057;49.984;8.404;2023-02-15T14:47:34;4.60;99.90
13970;DHT22;7057;49.984;8.404;2023-02-15T14:50:43;4.60;99.90
13970;DHT22;7057;49.984;8.404;2023-02-15T14:53:35;4.50;99.90
13970;DHT22;7057;49.984;8.404;2023-02-15T14:56:22;4.40;99.90
13970;DHT22;7057;49.984;8.404;2023-02-15T14:59:11;4.30;99.90
13970;DHT22;7057;49.984;8.404;2023-02-15T15:01:40;4.30;99.90
13970;DHT22;7057;49.984;8.404;2023-02-15T15:04:10;4.40;99.90
13970;DHT22;7057;49.984;8.404;2023-02-15T15:06:42;4.40;99.90
13970;DHT22;7057;49.984;8.404;2023-02-15T15:09:12;4.40;99.90
13970;DHT22;7057;49.984;8.404;2023-02-15T15:11:43;4.30;99.90
13970;DHT22;7057;49.984;8.404;2023-02-15T15:16:53;4.20;99.90
13970;DHT22;7057;49.984;8.404;2023-02-15T15:22:33;4.10;99.90
13970;DHT22;7057;49.984;8.404;2023-02-15T15:25:01;4.10;99.90
13970;DHT22;7057;49.984;8.404;2023-02-15T15:27:47;4.10;99.90
13970;DHT22;7057;49.984;8.404;2023-02-15T15:37:00;4.10;99.90
13970;DHT22;7057;49.984;8.404;2023-02-15T15:42:40;4.10;99.90
13970;DHT22;7057;49.984;8.404;2023-02-15T15:45:37;4.10;99.90
13970;DHT22;7057;49.984;8.404;2023-02-15T15:48:28;4.10;99.90
13970;DHT22;7057;49.984;8.404;2023-02-15T15:51:01;4.10;99.90
13970;DHT22;7057;49.984;8.404;2023-02-15T15:53:32;4.10;99.90
13970;DHT22;7057;49.984;8.404;2023-02-15T15:56:06;4.00;99.90
13970;DHT22;7057;49.984;8.404;2023-02-15T15:58:37;4.00;99.90
13970;DHT22;7057;49.984;8.404;2023-02-15T16:01:10;4.00;99.90
13970;DHT22;7057;49.984;8.404;2023-02-15T16:03:48;4.00;99.90
13970;DHT22;7057;49.984;8.404;2023-02-15T16:06:28;4.00;99.90
13970;DHT22;7057;49.984;8.404;2023-02-15T16:08:55;4.00;99.90
13970;DHT22;7057;49.984;8.404;2023-02-15T16:11:27;4.00;99.90
13970;DHT22;7057;49.984;8.404;2023-02-15T16:13:56;3.90;99.90
13970;DHT22;7057;49.984;8.404;2023-02-15T16:16:26;3.90;99.90
13970;DHT22;7057;49.984;8.404;2023-02-15T16:18:54;3.90;99.90
13970;DHT22;7057;49.984;8.404;2023-02-15T16:21:28;3.90;99.90
13970;DHT22;7057;49.984;8.404;2023-02-15T16:24:16;3.90;99.90
13970;DHT22;7057;49.984;8.404;2023-02-15T16:27:09;3.90;99.90
13970;DHT22;7057;49.984;8.404;2023-02-15T16:29:38;3.90;99.90
13970;DHT22;7057;49.984;8.404;2023-02-15T16:32:16;3.90;99.90
13970;DHT22;7057;49.984;8.404;2023-02-15T16:34:54;3.90;99.90
13970;DHT22;7057;49.984;8.404;2023-02-15T16:37:23;3.90;99.90
13970;DHT22;7057;49.984;8.404;2023-02-15T16:39:53;3.90;99.90
13970;DHT22;7057;49.984;8.404;2023-02-15T16:42:23;3.80;99.90
13970;DHT22;7057;49.984;8.404;2023-02-15T16:44:54;3.80;99.90
13970;DHT22;7057;49.984;8.404;2023-02-15T16:47:24;3.80;99.90
13970;DHT22;7057;49.984;8.404;2023-02-15T16:49:54;3.80;99.90
13970;DHT22;7057;49.984;8.404;2023-02-15T16:52:24;3.80;99.90
13970;DHT22;7057;49.984;8.404;2023-02-15T16:54:55;3.80;99.90